createdAt,value
2023-03-20T00:01:26.543Z,48867.50
2023-03-20T00:03:53.032Z,48879.25
2023-03-20T00:06:22.242Z,48902.75
2023-03-20T00:08:51.760Z,48887.09
2023-03-20T00:11:29.131Z,48887.09
2023-03-20T00:14:07.777Z,48863.56
2023-03-20T00:16:39.866Z,48863.56
2023-03-20T00:19:14.296Z,48871.41
2023-03-20T00:21:40.951Z,48867.50
2023-03-20T00:24:08.125Z,48910.59
2023-03-20T00:26:36.910Z,48863.56
2023-03-20T00:29:05.148Z,48851.81
2023-03-20T00:31:34.513Z,48902.75
2023-03-20T00:34:03.624Z,48863.56
2023-03-20T00:36:30.062Z,48885.13
2023-03-20T00:38:57.877Z,48889.03
2023-03-20T00:41:41.627Z,48918.44
2023-03-20T00:44:31.899Z,48863.56
2023-03-20T00:47:00.925Z,48902.75
2023-03-20T00:49:33.340Z,48914.50
2023-03-20T00:52:01.525Z,48891.00
2023-03-20T00:54:28.256Z,48887.09
2023-03-20T00:56:59.779Z,48883.16
2023-03-20T00:59:31.194Z,48902.75
2023-03-20T01:01:59.332Z,48887.09
2023-03-20T01:04:34.289Z,48908.63
2023-03-20T01:07:00.772Z,48883.16
2023-03-20T01:09:27.203Z,48930.19
2023-03-20T01:11:54.151Z,48887.09
2023-03-20T01:14:20.570Z,48906.69
2023-03-20T01:16:47.009Z,48922.34
2023-03-20T01:19:16.778Z,48883.16
2023-03-20T01:21:43.555Z,48896.88
2023-03-20T01:24:10.073Z,48930.19
2023-03-20T01:26:39.223Z,48879.25
2023-03-20T01:29:24.438Z,48894.91
2023-03-20T01:31:52.440Z,48906.69
2023-03-20T01:34:20.916Z,48891.00
2023-03-20T01:36:51.495Z,48908.63
2023-03-20T01:39:19.245Z,48894.91
2023-03-20T01:41:47.156Z,48871.41
2023-03-20T01:44:21.167Z,48892.97
2023-03-20T01:46:48.808Z,48885.13
2023-03-20T01:49:21.227Z,48894.91
2023-03-20T01:51:48.924Z,48916.47
2023-03-20T01:54:22.987Z,48930.19
2023-03-20T01:56:57.117Z,48906.69
2023-03-20T01:59:31.682Z,48894.91
2023-03-20T02:02:00.301Z,48926.25
2023-03-20T02:04:31.208Z,48910.59
2023-03-20T02:06:57.769Z,48930.19
2023-03-20T02:09:24.169Z,48949.78
2023-03-20T02:11:52.293Z,48918.44
2023-03-20T02:14:20.045Z,48953.69
2023-03-20T02:16:47.705Z,48936.06
2023-03-20T02:19:29.341Z,48916.47
2023-03-20T02:22:30.596Z,48941.94
2023-03-20T02:25:06.983Z,48941.94
2023-03-20T02:27:42.996Z,48926.25
2023-03-20T02:30:29.300Z,48949.78
2023-03-20T02:33:17.344Z,48945.84
2023-03-20T02:36:05.298Z,48953.69
2023-03-20T02:38:40.808Z,48961.53
2023-03-20T02:41:21.981Z,48938.03
2023-03-20T02:43:59.513Z,48965.44
2023-03-20T02:46:46.194Z,48926.25
2023-03-20T02:49:42.886Z,48918.44
2023-03-20T02:52:34.414Z,48938.03
2023-03-20T02:55:09.217Z,48959.56
2023-03-20T02:57:53.929Z,48941.94
2023-03-20T03:00:36.607Z,48938.03
2023-03-20T03:03:08.849Z,48930.19
2023-03-20T03:05:45.505Z,48945.84
2023-03-20T03:08:14.471Z,48959.56
2023-03-20T03:10:57.411Z,48926.25
2023-03-20T03:13:29.346Z,48924.31
2023-03-20T03:16:03.148Z,48922.34
2023-03-20T03:18:32.181Z,48938.03
2023-03-20T03:21:02.367Z,48961.53
2023-03-20T03:23:37.659Z,48951.72
2023-03-20T03:26:06.736Z,48951.72
2023-03-20T03:28:39.320Z,48945.84
2023-03-20T03:31:08.386Z,48922.34
2023-03-20T03:33:39.837Z,48975.25
2023-03-20T03:36:17.191Z,48969.38
2023-03-20T03:38:52.693Z,48965.44
2023-03-20T03:41:38.059Z,48985.03
2023-03-20T03:44:26.362Z,48943.91
2023-03-20T03:47:18.205Z,48908.63
2023-03-20T03:49:55.726Z,48967.41
2023-03-20T03:52:24.946Z,48939.97
2023-03-20T03:54:57.777Z,48965.44
2023-03-20T03:57:34.167Z,48979.16
2023-03-20T04:00:03.263Z,48945.84
2023-03-20T04:02:30.515Z,48981.13
2023-03-20T04:04:58.310Z,48945.84
2023-03-20T04:07:27.680Z,48951.72
2023-03-20T04:09:54.522Z,49028.13
2023-03-20T04:12:43.806Z,48992.88
2023-03-20T04:15:14.567Z,48988.94
2023-03-20T04:17:40.941Z,49006.59
2023-03-20T04:20:08.943Z,48977.19
2023-03-20T04:22:35.598Z,48973.28
2023-03-20T04:25:04.018Z,48987.00
2023-03-20T04:27:30.398Z,48981.13
2023-03-20T04:29:56.828Z,48981.13
2023-03-20T04:32:23.573Z,48981.13
2023-03-20T04:34:49.960Z,48990.91
2023-03-20T04:37:16.330Z,49018.34
2023-03-20T04:39:42.986Z,48957.59
2023-03-20T04:42:09.695Z,49004.63
2023-03-20T04:44:36.184Z,49012.47
2023-03-20T04:47:02.569Z,49020.31
2023-03-20T04:49:28.960Z,48996.78
2023-03-20T04:51:56.134Z,48992.88
2023-03-20T04:54:22.549Z,48983.06
2023-03-20T04:56:48.959Z,49016.38
2023-03-20T04:59:15.745Z,49008.53
2023-03-20T05:01:42.182Z,48973.28
2023-03-20T05:04:08.773Z,48973.28
2023-03-20T05:06:35.332Z,48977.19
2023-03-20T05:09:01.838Z,49004.63
2023-03-20T05:11:28.891Z,48971.31
2023-03-20T05:13:55.336Z,48977.19
2023-03-20T05:16:21.850Z,48961.53
2023-03-20T05:18:48.253Z,48977.19
2023-03-20T05:21:15.055Z,48981.13
2023-03-20T05:23:41.749Z,48977.19
2023-03-20T05:26:08.109Z,48988.94
2023-03-20T05:28:34.685Z,49008.53
2023-03-20T05:31:01.137Z,48996.78
2023-03-20T05:33:27.621Z,48985.03
2023-03-20T05:35:54.062Z,48996.78
2023-03-20T05:38:22.727Z,48985.03
2023-03-20T05:40:49.879Z,48985.03
2023-03-20T05:43:16.448Z,48985.03
2023-03-20T05:45:43.264Z,48963.50
2023-03-20T05:48:09.657Z,49008.53
2023-03-20T05:50:36.129Z,48988.94
2023-03-20T05:53:02.642Z,49004.63
2023-03-20T05:55:29.006Z,48988.94
2023-03-20T05:57:55.404Z,48994.84
2023-03-20T06:00:22.238Z,49008.53
2023-03-20T06:02:48.760Z,49000.72
2023-03-20T06:05:15.231Z,49004.63
2023-03-20T06:07:41.615Z,48977.19
2023-03-20T06:10:09.083Z,48953.69
2023-03-20T06:12:35.646Z,48996.78
2023-03-20T06:15:02.204Z,48979.16
2023-03-20T06:17:29.084Z,48973.28
2023-03-20T06:19:55.529Z,48977.19
2023-03-20T06:22:21.927Z,48981.13
2023-03-20T06:24:48.831Z,48985.03
2023-03-20T06:27:15.846Z,48965.44
2023-03-20T06:29:42.496Z,48971.31
2023-03-20T06:32:10.754Z,48961.53
2023-03-20T06:34:37.536Z,48992.88
2023-03-20T06:37:03.927Z,49004.63
2023-03-20T06:39:30.398Z,48969.38
2023-03-20T06:41:57.057Z,48957.59
2023-03-20T06:44:23.526Z,48985.03
2023-03-20T06:46:50.470Z,48992.88
2023-03-20T06:49:17.001Z,48981.13
2023-03-20T06:51:43.584Z,48981.13
2023-03-20T06:54:09.947Z,48985.03
2023-03-20T06:56:36.911Z,48973.28
2023-03-20T06:59:03.290Z,48981.13
2023-03-20T07:01:29.909Z,48969.38
2023-03-20T07:03:56.878Z,48965.44
2023-03-20T07:06:23.387Z,48961.53
2023-03-20T07:08:51.864Z,48969.38
2023-03-20T07:11:18.649Z,48957.59
2023-03-20T07:13:47.425Z,48957.59
2023-03-20T07:16:15.230Z,48957.59
2023-03-20T07:18:41.672Z,48945.84
2023-03-20T07:21:08.209Z,48957.59
2023-03-20T07:23:35.423Z,48959.56
2023-03-20T07:26:01.863Z,48965.44
2023-03-20T07:28:28.606Z,48957.59
2023-03-20T07:30:55.261Z,48945.84
2023-03-20T07:33:21.784Z,48938.03
2023-03-20T07:35:52.690Z,48943.91
2023-03-20T07:38:19.294Z,48951.72
2023-03-20T07:40:45.703Z,48938.03
2023-03-20T07:43:12.321Z,48965.44
2023-03-20T07:45:39.031Z,48953.69
2023-03-20T07:48:05.854Z,48957.59
2023-03-20T07:50:32.330Z,48961.53
2023-03-20T07:52:58.988Z,48965.44
2023-03-20T07:55:25.549Z,48957.59
2023-03-20T07:57:52.167Z,48985.03
2023-03-20T08:00:20.268Z,48975.25
2023-03-20T08:02:47.086Z,48967.41
2023-03-20T08:05:13.618Z,48975.25
2023-03-20T08:07:40.271Z,48953.69
2023-03-20T08:10:07.240Z,48957.59
2023-03-20T08:12:33.869Z,48949.78
2023-03-20T08:15:00.264Z,48969.38
2023-03-20T08:17:26.724Z,48965.44
2023-03-20T08:19:53.150Z,48961.53
2023-03-20T08:22:20.017Z,48959.56
2023-03-20T08:24:46.429Z,48973.28
2023-03-20T08:27:12.813Z,48969.38
2023-03-20T08:29:39.227Z,48990.91
2023-03-20T08:32:06.145Z,48985.03
2023-03-20T08:34:33.739Z,48973.28
2023-03-20T08:37:00.531Z,49000.72
2023-03-20T08:39:27.302Z,48977.19
2023-03-20T08:41:53.868Z,48973.28
2023-03-20T08:44:20.364Z,48981.13
2023-03-20T08:46:47.407Z,48973.28
2023-03-20T08:49:14.522Z,48992.88
2023-03-20T08:51:41.125Z,48961.53
2023-03-20T08:54:07.950Z,49008.53
2023-03-20T08:56:34.324Z,49000.72
2023-03-20T08:59:01.063Z,49002.66
2023-03-20T09:01:41.826Z,48981.13
2023-03-20T09:04:14.681Z,48985.03
2023-03-20T09:06:41.742Z,49028.13
2023-03-20T09:09:08.122Z,49000.72
2023-03-20T09:11:34.560Z,48990.91
2023-03-20T09:14:01.144Z,49000.72
2023-03-20T09:16:28.116Z,48992.88
2023-03-20T09:18:55.052Z,49039.88
2023-03-20T09:21:21.483Z,49004.63
2023-03-20T09:23:47.874Z,49026.19
2023-03-20T09:26:14.288Z,49032.06
2023-03-20T09:28:40.863Z,49004.63
2023-03-20T09:31:07.326Z,48988.94
2023-03-20T09:33:33.796Z,49012.47
2023-03-20T09:36:00.593Z,49032.06
2023-03-20T09:38:27.488Z,49012.47
2023-03-20T09:40:57.344Z,49008.53
2023-03-20T09:43:43.542Z,49012.47
2023-03-20T09:46:28.680Z,48987.00
2023-03-20T09:49:07.974Z,49014.41
2023-03-20T09:51:55.264Z,48988.94
2023-03-20T09:54:32.378Z,49008.53
2023-03-20T09:57:03.351Z,48992.88
2023-03-20T09:59:33.252Z,48977.19
2023-03-20T10:02:06.070Z,48975.25
2023-03-20T10:04:33.356Z,48977.19
2023-03-20T10:07:00.123Z,48992.88
2023-03-20T10:09:31.662Z,48988.94
2023-03-20T10:12:30.991Z,48949.78
2023-03-20T10:15:02.030Z,48973.28
2023-03-20T10:17:35.299Z,48973.28
2023-03-20T10:20:23.101Z,48914.50
2023-03-20T10:22:56.228Z,48939.97
2023-03-20T10:25:31.115Z,48930.19
2023-03-20T10:28:00.860Z,48945.84
2023-03-20T10:30:36.793Z,48928.22
2023-03-20T10:33:25.388Z,48906.69
2023-03-20T10:36:19.717Z,48906.69
2023-03-20T10:38:50.722Z,48883.16
2023-03-20T10:41:21.662Z,48892.97
2023-03-20T10:43:51.117Z,48922.34
2023-03-20T10:46:28.928Z,48900.78
2023-03-20T10:49:17.842Z,48863.56
2023-03-20T10:51:58.053Z,48883.16
2023-03-20T10:54:30.285Z,48877.28
2023-03-20T10:57:01.954Z,48867.50
2023-03-20T10:59:33.565Z,48820.47
2023-03-20T11:02:00.275Z,48855.75
2023-03-20T11:04:27.579Z,48883.16
2023-03-20T11:07:02.712Z,48863.56
2023-03-20T11:09:33.492Z,48845.94
2023-03-20T11:12:02.120Z,48844.00
2023-03-20T11:14:39.578Z,48832.22
2023-03-20T11:17:06.652Z,48820.47
2023-03-20T11:19:36.212Z,48832.22
2023-03-20T11:22:24.311Z,48820.47
2023-03-20T11:24:54.982Z,48867.50
2023-03-20T11:27:29.738Z,48793.06
2023-03-20T11:29:58.597Z,48849.88
2023-03-20T11:32:34.739Z,48824.41
2023-03-20T11:35:19.302Z,48857.69
2023-03-20T11:37:48.196Z,48828.31
2023-03-20T11:40:25.221Z,48826.34
2023-03-20T11:43:04.052Z,48812.63
2023-03-20T11:45:38.546Z,48820.47
2023-03-20T11:48:06.731Z,48844.00
2023-03-20T11:50:36.352Z,48830.28
2023-03-20T11:53:18.353Z,48832.22
2023-03-20T11:55:57.967Z,48826.34
2023-03-20T11:58:25.389Z,48832.22
2023-03-20T12:00:55.108Z,48836.16
2023-03-20T12:03:43.464Z,48830.28
2023-03-20T12:06:27.304Z,48812.63
2023-03-20T12:09:05.999Z,48800.88
2023-03-20T12:11:54.425Z,48812.63
2023-03-20T12:14:28.107Z,48826.34
2023-03-20T12:17:04.881Z,48830.28
2023-03-20T12:19:33.263Z,48810.69
2023-03-20T12:22:08.530Z,48877.28
2023-03-20T12:24:46.109Z,48887.09
2023-03-20T12:27:23.565Z,48914.50
2023-03-20T12:30:04.179Z,48957.59
2023-03-20T12:32:42.208Z,49008.53
2023-03-20T12:35:33.553Z,49067.31
2023-03-20T12:38:00.100Z,49039.88
2023-03-20T12:40:46.103Z,49008.53
2023-03-20T12:43:16.425Z,49012.47
2023-03-20T12:46:11.647Z,48988.94
2023-03-20T12:48:52.640Z,49020.31
2023-03-20T12:51:35.702Z,49016.38
2023-03-20T12:54:32.916Z,49014.41
2023-03-20T12:57:28.825Z,49002.66
2023-03-20T13:00:23.895Z,49024.22
2023-03-20T13:03:13.256Z,49047.72
2023-03-20T13:05:55.815Z,49037.94
2023-03-20T13:08:43.388Z,49020.31
2023-03-20T13:11:28.989Z,49016.38
2023-03-20T13:14:14.176Z,49039.88
2023-03-20T13:16:52.355Z,49008.53
2023-03-20T13:19:42.138Z,49034.00
2023-03-20T13:22:17.984Z,49059.47
2023-03-20T13:25:01.734Z,49035.97
2023-03-20T13:27:42.899Z,49063.41
2023-03-20T13:30:15.600Z,49059.47
2023-03-20T13:32:58.548Z,49035.97
2023-03-20T13:35:43.683Z,49059.47
2023-03-20T13:38:18.896Z,49059.47
2023-03-20T13:40:47.255Z,49055.56
2023-03-20T13:43:33.648Z,48992.88
2023-03-20T13:46:14.715Z,48969.38
2023-03-20T13:48:42.967Z,48996.78
2023-03-20T13:51:26.506Z,49016.38
2023-03-20T13:54:23.343Z,48992.88
2023-03-20T13:57:01.640Z,49002.66
2023-03-20T13:59:37.507Z,49014.41
2023-03-20T14:02:17.874Z,48971.31
2023-03-20T14:04:44.653Z,48955.66
2023-03-20T14:07:35.900Z,48994.84
2023-03-20T14:10:20.937Z,49008.53
2023-03-20T14:12:55.367Z,48973.28
2023-03-20T14:15:26.873Z,48965.44
2023-03-20T14:17:53.520Z,48994.84
2023-03-20T14:20:32.725Z,48992.88
2023-03-20T14:22:59.686Z,48945.84
2023-03-20T14:25:29.236Z,48945.84
2023-03-20T14:27:57.061Z,48914.50
2023-03-20T14:30:29.535Z,48953.69
2023-03-20T14:33:14.983Z,48943.91
2023-03-20T14:36:09.071Z,48930.19
2023-03-20T14:38:44.507Z,48887.09
2023-03-20T14:41:30.699Z,48891.00
2023-03-20T14:44:19.742Z,48894.91
2023-03-20T14:46:58.890Z,48924.31
2023-03-20T14:49:43.791Z,48898.84
2023-03-20T14:52:37.191Z,48918.44
2023-03-20T14:55:22.401Z,48871.41
2023-03-20T14:57:56.604Z,48879.25
2023-03-20T15:00:25.935Z,48887.09
2023-03-20T15:03:06.396Z,48857.69
2023-03-20T15:05:36.009Z,48883.16
2023-03-20T15:08:10.247Z,48881.22
2023-03-20T15:10:45.534Z,48906.69
2023-03-20T15:13:14.500Z,48910.59
2023-03-20T15:15:58.957Z,48894.91
2023-03-20T15:18:27.535Z,48844.00
2023-03-20T15:20:57.898Z,48863.56
2023-03-20T15:23:26.270Z,48859.66
2023-03-20T15:25:53.004Z,48879.25
2023-03-20T15:28:27.637Z,48883.16
2023-03-20T15:30:58.858Z,48883.16
2023-03-20T15:33:35.279Z,48930.19
2023-03-20T15:36:36.926Z,48857.69
2023-03-20T15:39:16.944Z,48883.16
2023-03-20T15:41:52.397Z,48853.78
2023-03-20T15:44:25.144Z,48853.78
2023-03-20T15:46:52.622Z,48883.16
2023-03-20T15:49:20.705Z,48875.34
2023-03-20T15:51:48.213Z,48906.69
2023-03-20T15:54:17.408Z,48849.88
2023-03-20T15:56:46.443Z,48887.09
2023-03-20T15:59:17.387Z,48861.63
2023-03-20T16:01:46.506Z,48867.50
2023-03-20T16:04:17.037Z,48871.41
2023-03-20T16:06:55.816Z,48863.56
2023-03-20T16:09:23.551Z,48844.00
2023-03-20T16:12:00.126Z,48857.69
2023-03-20T16:14:31.490Z,48869.44
2023-03-20T16:17:00.066Z,48828.31
2023-03-20T16:19:27.876Z,48838.09
2023-03-20T16:21:58.303Z,48845.94
2023-03-20T16:24:29.087Z,48847.91
2023-03-20T16:26:57.323Z,48857.69
2023-03-20T16:29:27.284Z,48853.78
2023-03-20T16:32:06.978Z,48834.19
2023-03-20T16:34:36.526Z,48826.34
2023-03-20T16:37:08.449Z,48847.91
2023-03-20T16:39:34.996Z,48863.56
2023-03-20T16:42:24.841Z,48832.22
2023-03-20T16:44:56.182Z,48863.56
2023-03-20T16:47:36.570Z,48828.31
2023-03-20T16:50:17.390Z,48832.22
2023-03-20T16:52:56.030Z,48871.41
2023-03-20T16:55:31.809Z,48824.41
2023-03-20T16:58:05.471Z,48838.09
2023-03-20T17:00:42.226Z,48847.91
2023-03-20T17:03:16.503Z,48816.56
2023-03-20T17:05:58.739Z,48816.56
2023-03-20T17:08:37.505Z,48818.53
2023-03-20T17:11:13.013Z,48832.22
2023-03-20T17:13:41.871Z,48796.97
2023-03-20T17:16:16.619Z,48844.00
2023-03-20T17:18:46.392Z,48824.41
2023-03-20T17:21:13.545Z,48828.31
2023-03-20T17:23:40.873Z,48840.06
2023-03-20T17:26:12.765Z,48838.09
2023-03-20T17:28:39.592Z,48840.06
2023-03-20T17:31:06.880Z,48826.34
2023-03-20T17:33:33.855Z,48859.66
2023-03-20T17:36:01.176Z,48840.06
2023-03-20T17:38:27.725Z,48808.72
2023-03-20T17:40:54.467Z,48816.56
2023-03-20T17:43:21.010Z,48855.75
2023-03-20T17:45:48.569Z,48847.91
2023-03-20T17:48:18.144Z,48859.66
2023-03-20T17:50:46.244Z,48824.41
2023-03-20T17:53:16.123Z,48840.06
2023-03-20T17:55:42.703Z,48822.44
2023-03-20T17:58:14.999Z,48812.63
2023-03-20T18:00:41.633Z,48842.03
2023-03-20T18:03:08.112Z,48812.63
2023-03-20T18:05:39.376Z,48832.22
2023-03-20T18:08:12.503Z,48840.06
2023-03-20T18:10:39.270Z,48808.72
2023-03-20T18:13:05.941Z,48812.63
2023-03-20T18:15:32.519Z,48806.75
2023-03-20T18:17:59.255Z,48838.09
2023-03-20T18:20:32.329Z,48869.44
2023-03-20T18:22:59.196Z,48832.22
2023-03-20T18:25:26.239Z,48840.06
2023-03-20T18:27:56.837Z,48849.88
2023-03-20T18:30:29.771Z,48840.06
2023-03-20T18:32:56.271Z,48836.16
2023-03-20T18:35:22.839Z,48849.88
2023-03-20T18:37:49.292Z,48822.44
2023-03-20T18:40:22.288Z,48840.06
2023-03-20T18:42:48.856Z,48828.31
2023-03-20T18:45:15.507Z,48810.69
2023-03-20T18:47:42.033Z,48818.53
2023-03-20T18:50:26.679Z,48851.81
2023-03-20T18:52:55.303Z,48855.75
2023-03-20T18:55:23.188Z,48853.78
2023-03-20T18:57:50.680Z,48840.06
2023-03-20T19:00:21.879Z,48847.91
2023-03-20T19:02:49.788Z,48867.50
2023-03-20T19:05:17.454Z,48853.78
2023-03-20T19:07:43.874Z,48863.56
2023-03-20T19:10:25.695Z,48849.88
2023-03-20T19:12:53.592Z,48836.16
2023-03-20T19:15:21.257Z,48844.00
2023-03-20T19:17:47.851Z,48863.56
2023-03-20T19:20:26.680Z,48844.00
2023-03-20T19:22:53.168Z,48859.66
2023-03-20T19:25:19.593Z,48832.22
2023-03-20T19:27:46.434Z,48857.69
2023-03-20T19:30:30.053Z,48824.41
2023-03-20T19:32:56.805Z,48844.00
2023-03-20T19:38:15.522Z,48857.69
2023-03-20T19:40:47.240Z,48863.56
2023-03-20T19:43:15.582Z,48824.41
2023-03-20T19:45:43.887Z,48855.75
2023-03-20T19:48:18.971Z,48834.19
2023-03-20T19:50:47.420Z,48859.66
2023-03-20T19:53:16.918Z,48857.69
2023-03-20T19:55:44.296Z,48847.91
2023-03-20T19:58:11.056Z,48867.50
2023-03-20T20:00:56.834Z,48865.53
2023-03-20T20:03:25.879Z,48867.50
2023-03-20T20:05:53.582Z,48855.75
2023-03-20T20:08:31.010Z,48808.72
2023-03-20T20:11:06.954Z,48855.75
2023-03-20T20:13:34.491Z,48828.31
2023-03-20T20:16:01.487Z,48851.81
2023-03-20T20:18:28.982Z,48785.22
2023-03-20T20:22:06.333Z,48855.75
2023-03-20T20:23:45.396Z,48871.41
2023-03-20T20:26:11.910Z,48891.00
2023-03-20T20:28:38.406Z,48840.06
2023-03-20T20:31:04.943Z,48851.81
2023-03-20T20:33:34.509Z,48820.47
2023-03-20T20:36:52.719Z,48824.41
2023-03-20T20:38:56.034Z,48830.28
2023-03-20T20:41:22.722Z,48851.81
2023-03-20T20:44:14.723Z,48851.81
2023-03-20T20:46:35.623Z,48832.22
2023-03-20T20:49:18.055Z,48838.09
2023-03-20T20:51:45.230Z,48877.28
2023-03-20T20:54:11.825Z,48863.56
2023-03-20T20:56:38.360Z,48847.91
2023-03-20T20:59:04.828Z,48871.41
2023-03-20T21:01:31.396Z,48855.75
2023-03-20T21:03:57.885Z,48879.25
2023-03-20T21:06:38.660Z,48859.66
2023-03-20T21:09:10.967Z,48808.72
2023-03-20T21:11:37.871Z,48857.69
2023-03-20T21:14:04.423Z,48847.91
2023-03-20T21:16:31.198Z,48869.44
2023-03-20T21:18:58.692Z,48871.41
2023-03-20T21:21:25.385Z,48881.22
2023-03-20T21:23:52.087Z,48863.56
2023-03-20T21:26:18.709Z,48883.16
2023-03-20T21:28:46.082Z,48859.66
2023-03-20T21:31:26.570Z,48887.09
2023-03-20T21:33:55.033Z,48881.22
2023-03-20T21:36:23.438Z,48879.25
2023-03-20T21:39:08.714Z,48867.50
2023-03-20T21:41:40.836Z,48859.66
2023-03-20T21:44:08.445Z,48865.53
2023-03-20T22:03:44.004Z,48883.16
2023-03-20T22:09:48.511Z,48855.75
2023-03-20T22:15:16.400Z,48861.63
2023-03-20T22:45:10.377Z,48910.59
2023-03-20T22:47:37.450Z,48918.44
2023-03-20T22:50:04.500Z,48922.34
2023-03-20T22:52:45.878Z,48896.88
2023-03-20T22:55:16.759Z,48934.09
2023-03-20T22:57:52.936Z,48934.09
2023-03-20T23:00:26.911Z,48914.50
2023-03-20T23:02:57.466Z,48879.25
2023-03-20T23:05:27.037Z,48924.31
2023-03-20T23:07:53.520Z,48918.44
2023-03-20T23:10:19.944Z,48904.72
2023-03-20T23:12:46.381Z,48887.09
2023-03-20T23:15:13.057Z,48898.84
2023-03-20T23:17:39.478Z,48902.75
2023-03-20T23:20:12.347Z,48926.25
2023-03-20T23:22:40.647Z,48906.69
2023-03-20T23:25:16.480Z,48904.72
2023-03-20T23:27:50.361Z,48898.84
2023-03-20T23:30:16.946Z,48914.50
2023-03-20T23:32:43.426Z,48926.25
2023-03-20T23:35:09.952Z,48871.41
2023-03-20T23:37:36.654Z,48916.47
2023-03-20T23:40:04.621Z,48891.00
2023-03-20T23:42:31.219Z,48920.38
2023-03-20T23:45:04.490Z,48922.34
2023-03-20T23:47:44.373Z,48965.44
2023-03-20T23:50:17.225Z,48922.34
2023-03-20T23:52:57.075Z,48922.34
2023-03-20T23:55:28.126Z,48930.19
2023-03-20T23:57:54.509Z,48961.53
